Time;durP1;ratioP1;P1;durP2;ratioP2;P2;SDS_P1;SDS_P2;PMS_P1;PMS_P2;Temp;Humidity;BMP_temperature;BMP_pressure;BME280_temperature;BME280_humidity;BME280_pressure;Samples;Min_cycle;Max_cycle;Signal;HPM_P1;HPM_P2
2023/09/17 00:00:44;;;;;;;7.70;6.90;;;17.70;66.10;;;;;;4920052;29;20035;-69
2023/09/17 00:03:10;;;;;;;6.88;6.25;;;17.70;66.10;;;;;;4936052;29;20131;-69
2023/09/17 00:05:36;;;;;;;6.82;6.15;;;17.70;66.20;;;;;;4935826;29;20065;-69
2023/09/17 00:08:03;;;;;;;9.55;8.70;;;17.60;66.10;;;;;;4935705;29;20107;-69
2023/09/17 00:10:30;;;;;;;8.73;7.45;;;17.60;66.20;;;;;;4935835;29;20330;-69
2023/09/17 00:12:56;;;;;;;7.95;6.50;;;17.60;66.30;;;;;;4935293;28;20047;-69
2023/09/17 00:15:23;;;;;;;7.28;6.63;;;17.60;66.30;;;;;;4935941;28;20075;-69
2023/09/17 00:17:49;;;;;;;7.72;6.93;;;17.60;66.40;;;;;;4935760;29;20434;-69
2023/09/17 00:20:15;;;;;;;7.30;6.60;;;17.60;66.40;;;;;;4935270;29;20067;-70
2023/09/17 00:22:41;;;;;;;7.38;6.55;;;17.50;66.40;;;;;;4934860;29;20042;-70
2023/09/17 00:25:07;;;;;;;8.05;6.13;;;17.60;66.50;;;;;;4919875;29;20039;-70
2023/09/17 00:27:33;;;;;;;8.98;7.38;;;17.50;66.50;;;;;;4935582;29;20035;-70
2023/09/17 00:29:59;;;;;;;7.60;6.53;;;17.50;66.50;;;;;;4935699;29;20487;-70
2023/09/17 00:32:25;;;;;;;7.68;6.88;;;17.50;66.60;;;;;;4939122;28;20042;-70
2023/09/17 00:34:50;;;;;;;11.52;10.40;;;17.50;66.70;;;;;;4923596;29;20118;-70
2023/09/17 00:37:17;;;;;;;10.73;9.73;;;17.50;66.90;;;;;;4939220;29;20572;-70
2023/09/17 00:39:43;;;;;;;11.32;10.25;;;17.50;67.00;;;;;;4938954;29;20046;-70
2023/09/17 00:42:09;;;;;;;12.32;9.68;;;17.50;67.20;;;;;;4940171;28;20380;-70
2023/09/17 00:44:35;;;;;;;9.77;8.30;;;17.50;67.30;;;;;;4958352;28;20047;-70
2023/09/17 00:47:03;;;;;;;9.50;8.50;;;17.40;67.40;;;;;;4958526;28;20042;-70
2023/09/17 00:49:29;;;;;;;10.80;9.68;;;17.40;67.50;;;;;;4958368;28;20026;-70
2023/09/17 00:51:56;;;;;;;7.93;7.10;;;17.40;67.60;;;;;;4942560;28;20523;-70
2023/09/17 00:54:25;;;;;;;13.52;12.15;;;17.40;67.70;;;;;;4957896;28;20047;-70
2023/09/17 00:56:51;;;;;;;12.55;11.35;;;17.40;67.90;;;;;;4957974;28;20046;-70
2023/09/17 00:59:17;;;;;;;11.05;9.95;;;17.40;68.00;;;;;;4957812;28;20046;-70
2023/09/17 01:01:43;;;;;;;7.80;6.97;;;17.30;68.10;;;;;;4958246;28;20073;-70
2023/09/17 01:04:11;;;;;;;10.77;9.70;;;17.40;68.20;;;;;;4957843;28;20060;-70
2023/09/17 01:06:38;;;;;;;6.90;6.20;;;17.30;68.10;;;;;;4958125;28;20082;-70
2023/09/17 01:09:05;;;;;;;7.68;6.88;;;17.30;68.10;;;;;;4957867;28;20047;-70
2023/09/17 01:11:30;;;;;;;8.93;8.02;;;17.30;68.00;;;;;;4960122;28;20121;-70
2023/09/17 01:14:10;;;;;;;13.93;12.15;;;17.30;68.00;;;;;;4957121;28;20145;-70
2023/09/17 01:16:35;;;;;;;15.05;13.60;;;17.30;68.20;;;;;;4957854;28;20097;-69
2023/09/17 01:19:03;;;;;;;16.40;15.00;;;17.30;68.60;;;;;;4957470;28;20042;-70
2023/09/17 01:21:45;;;;;;;12.18;11.07;;;17.30;68.90;;;;;;4942367;28;20101;-70
2023/09/17 01:24:21;;;;;;;9.20;8.15;;;17.30;69.20;;;;;;4956007;28;20043;-70
2023/09/17 01:27:03;;;;;;;11.90;10.75;;;17.20;69.20;;;;;;4955397;28;20049;-69
2023/09/17 01:29:37;;;;;;;12.23;10.45;;;17.20;69.20;;;;;;4959728;28;20074;-69
2023/09/17 01:32:04;;;;;;;11.57;10.48;;;17.20;69.40;;;;;;4957532;28;20048;-69
2023/09/17 01:34:37;;;;;;;11.68;10.27;;;17.20;69.30;;;;;;4973494;28;20414;-70
2023/09/17 01:37:08;;;;;;;10.75;9.65;;;17.20;69.30;;;;;;4957665;28;20039;-69
2023/09/17 01:39:44;;;;;;;10.60;9.50;;;17.20;69.20;;;;;;4970993;28;20501;-69
2023/09/17 01:42:11;;;;;;;11.52;10.43;;;17.20;69.20;;;;;;4941019;28;20038;-70
2023/09/17 01:44:37;;;;;;;12.65;11.35;;;17.20;69.20;;;;;;4956592;28;20050;-69
2023/09/17 01:47:04;;;;;;;11.13;9.60;;;17.20;69.20;;;;;;4957375;28;20114;-70
2023/09/17 01:49:32;;;;;;;11.85;10.73;;;17.20;69.20;;;;;;4957375;28;20038;-70
2023/09/17 01:51:58;;;;;;;8.32;7.47;;;17.30;69.30;;;;;;4970867;28;20102;-69
2023/09/17 01:54:25;;;;;;;11.68;8.70;;;17.30;69.20;;;;;;4957226;28;20038;-69
2023/09/17 01:56:51;;;;;;;9.07;8.15;;;17.30;69.20;;;;;;4941300;28;20118;-70
2023/09/17 01:59:17;;;;;;;8.75;7.93;;;17.30;69.20;;;;;;4959700;28;20155;-69
2023/09/17 02:01:43;;;;;;;9.10;8.30;;;17.30;69.20;;;;;;4956903;28;20457;-69
2023/09/17 02:04:09;;;;;;;10.68;9.68;;;17.30;69.20;;;;;;4956777;28;20148;-70
2023/09/17 02:06:36;;;;;;;8.80;7.95;;;17.40;69.20;;;;;;4957388;28;20050;-69
2023/09/17 02:09:05;;;;;;;11.10;10.00;;;17.40;69.20;;;;;;4956899;28;20129;-69
2023/09/17 02:11:31;;;;;;;10.07;9.05;;;17.40;69.30;;;;;;4971134;28;20043;-70
2023/09/17 02:13:57;;;;;;;10.98;8.73;;;17.40;69.30;;;;;;4957269;28;20078;-70
2023/09/17 02:16:23;;;;;;;11.30;10.20;;;17.40;69.30;;;;;;4956798;28;20081;-69
2023/09/17 02:18:51;;;;;;;9.35;8.30;;;17.40;69.20;;;;;;4956771;28;20118;-70
2023/09/17 02:21:16;;;;;;;9.50;8.57;;;17.40;69.20;;;;;;4956797;28;20045;-69
2023/09/17 02:23:44;;;;;;;12.27;10.70;;;17.40;69.10;;;;;;4956582;28;20121;-69
2023/09/17 02:26:10;;;;;;;10.50;9.48;;;17.40;69.10;;;;;;4956164;28;20517;-69
2023/09/17 02:28:36;;;;;;;8.70;7.80;;;17.50;69.20;;;;;;4970301;28;20070;-69
2023/09/17 02:31:02;;;;;;;7.72;6.90;;;17.50;69.10;;;;;;4958622;28;20034;-69
2023/09/17 02:33:31;;;;;;;11.77;10.70;;;17.50;69.00;;;;;;4956372;28;20049;-69
2023/09/17 02:35:57;;;;;;;10.82;9.82;;;17.50;69.00;;;;;;4956045;28;20043;-70
2023/09/17 02:38:23;;;;;;;13.30;12.05;;;17.50;69.20;;;;;;4956571;28;20034;-70
2023/09/17 02:40:48;;;;;;;12.30;11.00;;;17.50;69.30;;;;;;4956422;28;20034;-69
2023/09/17 02:43:14;;;;;;;11.60;10.52;;;17.50;69.20;;;;;;4940469;28;20411;-69
2023/09/17 02:45:40;;;;;;;12.90;11.57;;;17.50;69.30;;;;;;4956254;28;20042;-69
2023/09/17 02:48:06;;;;;;;11.02;10.02;;;17.50;69.30;;;;;;4956264;28;20560;-69
2023/09/17 02:50:31;;;;;;;12.35;11.15;;;17.50;69.30;;;;;;4956332;28;20038;-69
2023/09/17 02:52:58;;;;;;;12.45;11.15;;;17.50;69.30;;;;;;4955995;28;20426;-70
2023/09/17 02:55:24;;;;;;;17.58;15.98;;;17.50;69.40;;;;;;4955086;28;20265;-70
2023/09/17 02:57:50;;;;;;;12.50;11.25;;;17.50;69.60;;;;;;4954089;28;20039;-69
2023/09/17 03:00:17;;;;;;;12.52;11.35;;;17.50;69.80;;;;;;4956117;28;20049;-69
2023/09/17 03:02:47;;;;;;;12.05;10.85;;;17.50;69.80;;;;;;4956121;28;20046;-69
2023/09/17 03:05:14;;;;;;;9.63;8.70;;;17.50;69.70;;;;;;4952953;28;20050;-69
2023/09/17 03:07:40;;;;;;;19.15;17.40;;;17.40;69.60;;;;;;4955945;28;20175;-70
2023/09/17 03:10:07;;;;;;;14.05;12.65;;;17.40;69.70;;;;;;4955514;28;20043;-69
2023/09/17 03:12:33;;;;;;;14.18;12.77;;;17.40;69.80;;;;;;4955830;28;20057;-70
2023/09/17 03:14:59;;;;;;;18.52;16.60;;;17.40;70.00;;;;;;4955021;28;20482;-69
2023/09/17 03:17:24;;;;;;;17.85;16.25;;;17.40;70.10;;;;;;4955856;28;20486;-70
2023/09/17 03:19:51;;;;;;;13.70;12.27;;;17.40;70.40;;;;;;4955564;28;20073;-69
2023/09/17 03:22:17;;;;;;;15.27;13.80;;;17.40;70.60;;;;;;4955541;28;20070;-69
2023/09/17 03:24:43;;;;;;;14.93;13.43;;;17.40;70.90;;;;;;4955561;28;20069;-69
2023/09/17 03:27:08;;;;;;;16.05;14.55;;;17.40;70.90;;;;;;4955620;28;20039;-70
2023/09/17 03:29:34;;;;;;;15.38;13.98;;;17.40;70.90;;;;;;4956011;28;20043;-69
2023/09/17 03:32:00;;;;;;;14.35;12.98;;;17.40;71.00;;;;;;4957111;28;20051;-69
2023/09/17 03:34:26;;;;;;;12.32;11.20;;;17.40;71.20;;;;;;4955287;28;20125;-69
2023/09/17 03:36:51;;;;;;;18.60;16.85;;;17.40;71.20;;;;;;4955335;28;20049;-70
2023/09/17 03:39:17;;;;;;;13.13;11.85;;;17.40;71.40;;;;;;4955871;28;20042;-69
2023/09/17 03:41:43;;;;;;;21.83;19.70;;;17.40;71.50;;;;;;4955491;28;20047;-69
2023/09/17 03:44:09;;;;;;;20.15;18.15;;;17.40;71.90;;;;;;4955343;28;20085;-69
2023/09/17 03:46:36;;;;;;;21.45;19.38;;;17.40;72.30;;;;;;4955440;28;20078;-69
2023/09/17 03:49:03;;;;;;;17.52;15.77;;;17.30;72.60;;;;;;4955886;28;20473;-70
2023/09/17 03:51:29;;;;;;;16.95;15.15;;;17.30;72.80;;;;;;4955039;28;20125;-69
2023/09/17 03:53:55;;;;;;;20.45;18.52;;;17.30;72.90;;;;;;4955297;28;20133;-70
2023/09/17 03:56:21;;;;;;;21.17;19.05;;;17.30;73.10;;;;;;4954867;28;20046;-70
2023/09/17 03:58:48;;;;;;;19.05;17.23;;;17.30;73.30;;;;;;4955643;28;20121;-70
2023/09/17 04:01:14;;;;;;;13.73;12.32;;;17.30;73.50;;;;;;4955304;28;20051;-70
2023/09/17 04:03:40;;;;;;;20.83;18.83;;;17.30;73.80;;;;;;4954834;28;20512;-70
2023/09/17 04:06:06;;;;;;;22.13;19.88;;;17.30;73.90;;;;;;4956683;28;20047;-69
2023/09/17 04:08:31;;;;;;;16.77;15.05;;;17.30;74.20;;;;;;4958245;28;20039;-69
2023/09/17 04:10:57;;;;;;;15.50;14.00;;;17.20;74.40;;;;;;4958941;28;20038;-70
2023/09/17 04:13:23;;;;;;;15.68;14.13;;;17.30;74.50;;;;;;4943189;28;20042;-69
2023/09/17 04:15:50;;;;;;;12.45;11.20;;;17.30;74.50;;;;;;4958654;28;20046;-70
2023/09/17 04:18:16;;;;;;;21.05;18.90;;;17.30;74.50;;;;;;4958967;28;20042;-70
2023/09/17 04:20:41;;;;;;;21.92;19.65;;;17.30;74.60;;;;;;4942773;28;20046;-70
2023/09/17 04:23:07;;;;;;;23.80;21.50;;;17.30;74.80;;;;;;4959457;28;20031;-69
2023/09/17 04:25:35;;;;;;;13.50;12.20;;;17.30;75.20;;;;;;4958751;28;20121;-69
2023/09/17 04:28:02;;;;;;;13.00;11.80;;;17.30;75.50;;;;;;4959059;28;20398;-70
2023/09/17 04:30:27;;;;;;;13.95;12.52;;;17.30;75.40;;;;;;4958667;28;20190;-70
2023/09/17 04:32:54;;;;;;;17.55;15.80;;;17.20;75.20;;;;;;4958572;28;20516;-70
2023/09/17 04:35:21;;;;;;;20.42;18.33;;;17.30;75.30;;;;;;4942660;28;20066;-70
2023/09/17 04:37:49;;;;;;;18.95;17.00;;;17.30;75.40;;;;;;4942718;28;20553;-70
2023/09/17 04:40:15;;;;;;;19.50;17.60;;;17.30;75.60;;;;;;4958103;28;20089;-70
2023/09/17 04:42:48;;;;;;;20.30;17.85;;;17.30;75.80;;;;;;4958205;28;20172;-70
2023/09/17 04:45:32;;;;;;;18.63;16.83;;;17.30;75.90;;;;;;4974549;28;20478;-70
2023/09/17 04:47:58;;;;;;;19.77;17.83;;;17.30;75.90;;;;;;4974433;28;20042;-70
2023/09/17 04:50:23;;;;;;;13.15;11.85;;;17.30;76.00;;;;;;4958669;28;20501;-70
2023/09/17 04:52:49;;;;;;;25.10;21.75;;;17.30;76.50;;;;;;4958827;28;20042;-70
2023/09/17 04:55:15;;;;;;;25.02;22.38;;;17.30;76.40;;;;;;4942049;28;20125;-70
2023/09/17 04:57:40;;;;;;;25.50;22.70;;;17.30;76.60;;;;;;4957897;28;20126;-70
2023/09/17 05:00:10;;;;;;;26.55;24.05;;;17.30;76.90;;;;;;4942008;28;20035;-70
2023/09/17 05:02:38;;;;;;;30.60;27.38;;;17.30;77.10;;;;;;4943006;28;20085;-70
2023/09/17 05:05:07;;;;;;;27.63;24.80;;;17.30;77.40;;;;;;4958318;28;20090;-70
2023/09/17 05:07:33;;;;;;;26.00;23.20;;;17.30;77.70;;;;;;4956883;28;20039;-70
2023/09/17 05:09:58;;;;;;;33.58;30.08;;;17.20;77.70;;;;;;4958332;28;20134;-70
2023/09/17 05:12:24;;;;;;;30.55;27.38;;;17.30;78.00;;;;;;4957584;28;20039;-70
2023/09/17 05:14:49;;;;;;;34.78;29.55;;;17.20;78.10;;;;;;4957726;28;20042;-70
2023/09/17 05:17:15;;;;;;;32.63;29.30;;;17.20;78.30;;;;;;4925334;28;20085;-70
2023/09/17 05:19:41;;;;;;;34.03;30.52;;;17.20;78.50;;;;;;4958260;28;20478;-70
2023/09/17 05:22:06;;;;;;;28.67;25.58;;;17.20;78.60;;;;;;4925991;28;20470;-70
2023/09/17 05:24:32;;;;;;;27.45;24.75;;;17.10;78.60;;;;;;4957857;28;20490;-70
2023/09/17 05:26:58;;;;;;;32.70;29.27;;;17.10;78.60;;;;;;4941598;28;20454;-70
2023/09/17 05:29:23;;;;;;;32.05;28.73;;;17.10;78.70;;;;;;4961464;28;20035;-70
2023/09/17 05:31:49;;;;;;;31.48;27.98;;;17.10;78.70;;;;;;4957410;28;20490;-70
2023/09/17 05:34:15;;;;;;;33.92;30.55;;;17.10;78.90;;;;;;4957804;28;20406;-70
2023/09/17 05:36:41;;;;;;;32.97;29.60;;;17.10;79.10;;;;;;4957055;28;20043;-70
2023/09/17 05:39:08;;;;;;;33.50;30.08;;;17.10;79.10;;;;;;4957577;28;20046;-70
2023/09/17 05:41:34;;;;;;;33.63;30.13;;;17.10;79.20;;;;;;4957232;28;20043;-70
2023/09/17 05:44:03;;;;;;;33.92;30.52;;;17.10;79.40;;;;;;4957238;28;20054;-70
2023/09/17 05:46:30;;;;;;;36.80;32.75;;;17.10;79.50;;;;;;4942363;28;20118;-70
2023/09/17 05:48:56;;;;;;;38.53;34.00;;;17.10;79.70;;;;;;4957794;28;20390;-70
2023/09/17 05:51:22;;;;;;;35.97;32.35;;;17.10;79.80;;;;;;4941263;28;20042;-70
2023/09/17 05:53:47;;;;;;;33.67;30.08;;;17.00;80.00;;;;;;4957197;28;20118;-70
2023/09/17 05:56:13;;;;;;;35.00;31.40;;;17.00;80.10;;;;;;4956900;28;20070;-70
2023/09/17 05:58:39;;;;;;;41.17;33.13;;;17.00;80.30;;;;;;4971270;28;20090;-70
2023/09/17 06:01:04;;;;;;;34.10;30.58;;;17.10;80.50;;;;;;4957255;28;20041;-70
2023/09/17 06:03:30;;;;;;;31.58;28.35;;;17.10;80.60;;;;;;4959163;28;20027;-70
2023/09/17 06:05:56;;;;;;;38.00;32.97;;;17.10;80.70;;;;;;4959084;28;20410;-70
2023/09/17 06:08:22;;;;;;;32.72;29.23;;;17.10;80.80;;;;;;4956830;28;20050;-70
2023/09/17 06:10:48;;;;;;;34.40;30.88;;;17.10;80.80;;;;;;4956975;28;20097;-70
2023/09/17 06:13:14;;;;;;;32.88;29.27;;;17.10;80.90;;;;;;4940783;28;20038;-70
2023/09/17 06:15:40;;;;;;;34.97;31.35;;;17.10;81.00;;;;;;4956674;28;20051;-70
2023/09/17 06:18:05;;;;;;;32.97;29.70;;;17.10;81.10;;;;;;4956824;28;20406;-70
2023/09/17 06:20:31;;;;;;;35.53;30.35;;;17.20;81.30;;;;;;4956694;28;20151;-70
2023/09/17 06:22:57;;;;;;;32.20;28.85;;;17.20;81.30;;;;;;4956894;28;20066;-70
2023/09/17 06:25:23;;;;;;;31.50;28.23;;;17.20;81.30;;;;;;4956926;28;20475;-70
2023/09/17 06:27:49;;;;;;;31.23;28.00;;;17.20;81.30;;;;;;4956471;28;20126;-70
2023/09/17 06:30:15;;;;;;;29.00;26.10;;;17.30;81.30;;;;;;4956778;28;20125;-70
2023/09/17 06:32:41;;;;;;;30.00;27.00;;;17.20;81.30;;;;;;4956484;28;20126;-70
2023/09/17 06:35:08;;;;;;;33.88;30.27;;;17.30;81.30;;;;;;4940339;28;20042;-70
2023/09/17 06:37:33;;;;;;;31.02;27.83;;;17.30;81.40;;;;;;4956287;28;20039;-70
2023/09/17 06:39:59;;;;;;;33.00;29.52;;;17.30;81.40;;;;;;4956370;28;20061;-70
2023/09/17 06:42:25;;;;;;;27.55;24.75;;;17.40;81.50;;;;;;4956251;28;20046;-70
2023/09/17 06:44:50;;;;;;;26.05;23.38;;;17.40;81.80;;;;;;4956271;28;20049;-70
2023/09/17 06:47:16;;;;;;;29.25;26.38;;;17.40;81.30;;;;;;4956232;28;20190;-70
2023/09/17 06:49:42;;;;;;;27.42;24.52;;;17.40;81.30;;;;;;4956012;28;20368;-71
2023/09/17 06:52:08;;;;;;;25.20;22.80;;;17.50;81.40;;;;;;4955812;28;20097;-70
2023/09/17 06:54:34;;;;;;;27.35;24.40;;;17.50;81.30;;;;;;4956273;28;20035;-70
2023/09/17 06:57:01;;;;;;;26.92;24.27;;;17.50;81.30;;;;;;4956161;28;20406;-70
2023/09/17 06:59:27;;;;;;;25.08;22.55;;;17.50;81.30;;;;;;4955614;28;20110;-71
2023/09/17 07:01:53;;;;;;;21.52;19.42;;;17.50;81.20;;;;;;4956195;28;20457;-71
2023/09/17 07:04:19;;;;;;;22.15;19.90;;;17.50;81.10;;;;;;4955445;28;20478;-71
2023/09/17 07:06:45;;;;;;;19.38;17.42;;;17.60;81.10;;;;;;4955885;28;20042;-71
2023/09/17 07:09:11;;;;;;;29.55;26.65;;;17.60;81.00;;;;;;4941434;28;20049;-71
2023/09/17 07:11:36;;;;;;;29.38;26.27;;;17.60;81.00;;;;;;4955650;28;20038;-71
2023/09/17 07:14:08;;;;;;;27.08;24.40;;;17.60;81.10;;;;;;4939326;28;20035;-71
2023/09/17 07:16:35;;;;;;;26.55;23.77;;;17.60;81.00;;;;;;4924568;28;20090;-71
2023/09/17 07:19:01;;;;;;;24.17;21.83;;;17.70;81.10;;;;;;4923999;28;20093;-71
2023/09/17 07:21:27;;;;;;;29.33;26.60;;;17.70;81.00;;;;;;4955268;28;20434;-71
2023/09/17 07:23:52;;;;;;;33.05;29.80;;;17.70;81.00;;;;;;4955874;28;20039;-71
2023/09/17 07:26:20;;;;;;;29.25;26.23;;;17.70;81.10;;;;;;4955481;28;20077;-71
2023/09/17 07:28:46;;;;;;;29.23;26.33;;;17.70;81.20;;;;;;4955613;28;20515;-71
2023/09/17 07:31:12;;;;;;;25.02;22.48;;;17.70;81.30;;;;;;4957623;28;20066;-72
2023/09/17 07:33:39;;;;;;;25.85;23.35;;;17.70;81.30;;;;;;4955180;28;20117;-71
2023/09/17 07:36:06;;;;;;;32.97;29.70;;;17.70;81.30;;;;;;4954554;28;20071;-71
2023/09/17 07:38:32;;;;;;;25.15;22.75;;;17.70;81.30;;;;;;4958204;28;20110;-71
2023/09/17 07:40:57;;;;;;;31.10;27.92;;;17.70;81.30;;;;;;4956659;28;20174;-71
2023/09/17 07:43:23;;;;;;;31.83;28.80;;;17.70;81.40;;;;;;4940252;28;20142;-71
2023/09/17 07:45:49;;;;;;;31.13;27.92;;;17.90;81.60;;;;;;4971791;28;20089;-71
2023/09/17 07:48:14;;;;;;;33.08;29.88;;;17.70;81.50;;;;;;4956883;28;20499;-70
2023/09/17 07:50:40;;;;;;;28.95;26.20;;;17.80;81.70;;;;;;4957250;28;20047;-70
2023/09/17 07:53:07;;;;;;;31.52;28.33;;;17.80;81.80;;;;;;4956340;28;20039;-71
2023/09/17 07:55:33;;;;;;;30.42;27.33;;;17.70;81.80;;;;;;4954697;28;20516;-71
2023/09/17 07:57:58;;;;;;;27.10;24.50;;;17.80;81.80;;;;;;4938448;28;20039;-71
2023/09/17 08:00:25;;;;;;;32.35;28.90;;;17.80;81.80;;;;;;4955637;28;20395;-71
2023/09/17 08:02:51;;;;;;;27.60;24.92;;;17.80;81.80;;;;;;4955634;28;20381;-70
2023/09/17 08:05:17;;;;;;;26.63;23.88;;;17.80;81.80;;;;;;4940340;28;20039;-71
2023/09/17 08:07:44;;;;;;;27.77;24.83;;;17.80;81.80;;;;;;4972602;28;20442;-71
2023/09/17 08:10:10;;;;;;;30.00;27.10;;;17.80;81.80;;;;;;4971093;28;20133;-71
2023/09/17 08:12:36;;;;;;;29.15;26.13;;;17.80;81.80;;;;;;4960485;28;20069;-70
2023/09/17 08:15:02;;;;;;;24.40;21.98;;;17.80;81.90;;;;;;4939815;28;20442;-71
2023/09/17 08:17:28;;;;;;;18.55;16.63;;;17.90;82.00;;;;;;4939737;28;20062;-72
2023/09/17 08:19:56;;;;;;;27.40;24.60;;;17.90;82.00;;;;;;4955749;28;20093;-72
2023/09/17 08:22:22;;;;;;;26.48;23.77;;;17.90;82.00;;;;;;4956142;28;20045;-72
2023/09/17 08:24:48;;;;;;;23.65;21.25;;;17.90;81.90;;;;;;4955856;28;20407;-72
2023/09/17 08:27:16;;;;;;;30.52;27.17;;;17.90;81.80;;;;;;4956311;28;20074;-72
2023/09/17 08:29:43;;;;;;;29.52;26.67;;;17.90;81.80;;;;;;4940693;28;20058;-72
2023/09/17 08:32:11;;;;;;;30.52;27.42;;;17.90;81.80;;;;;;4956587;28;20092;-72
2023/09/17 08:34:36;;;;;;;24.42;22.02;;;17.90;81.80;;;;;;4955723;28;20058;-72
2023/09/17 08:37:04;;;;;;;27.77;25.08;;;17.90;81.80;;;;;;4956188;28;20043;-72
2023/09/17 08:39:31;;;;;;;29.85;26.83;;;17.90;81.80;;;;;;4940911;28;20042;-72
2023/09/17 08:41:59;;;;;;;23.77;21.55;;;17.90;81.80;;;;;;4956133;28;20394;-72
2023/09/17 08:44:27;;;;;;;27.73;24.95;;;17.90;81.70;;;;;;4939758;29;20135;-72
2023/09/17 08:46:55;;;;;;;28.77;25.85;;;17.90;81.70;;;;;;4926623;29;20170;-72
2023/09/17 08:49:21;;;;;;;25.23;22.80;;;17.90;81.70;;;;;;4936980;29;20491;-72
2023/09/17 08:51:50;;;;;;;28.15;25.20;;;17.90;81.70;;;;;;4942077;28;20047;-72
2023/09/17 08:54:40;;;;;;;27.15;24.58;;;17.90;81.70;;;;;;4936540;29;20045;-72
2023/09/17 08:57:07;;;;;;;28.08;25.17;;;18.00;81.50;;;;;;4921393;29;20518;-72
2023/09/17 08:59:38;;;;;;;26.52;23.90;;;17.90;81.60;;;;;;4921057;29;20051;-72
2023/09/17 09:02:16;;;;;;;22.77;20.58;;;17.90;81.60;;;;;;4940052;29;20050;-72
2023/09/17 09:04:42;;;;;;;27.50;24.30;;;17.90;81.60;;;;;;4941452;29;20036;-72
2023/09/17 09:07:09;;;;;;;32.38;29.10;;;17.90;81.60;;;;;;4924622;29;20458;-72
2023/09/17 09:09:38;;;;;;;27.42;24.80;;;17.90;81.70;;;;;;4937499;28;20487;-72
2023/09/17 09:12:04;;;;;;;27.30;24.58;;;17.90;81.80;;;;;;4952951;28;20039;-72
2023/09/17 09:14:30;;;;;;;26.27;23.77;;;18.00;81.80;;;;;;4939310;29;20529;-72
2023/09/17 09:16:55;;;;;;;24.00;21.60;;;17.90;81.90;;;;;;4940191;28;20074;-72
2023/09/17 09:19:21;;;;;;;23.77;21.50;;;18.00;82.00;;;;;;4938524;29;20043;-71
2023/09/17 09:21:47;;;;;;;25.58;22.98;;;18.00;82.20;;;;;;4941835;29;20042;-72
2023/09/17 09:24:12;;;;;;;20.40;18.33;;;18.00;82.20;;;;;;4952767;28;20086;-72
2023/09/17 09:26:39;;;;;;;24.15;21.75;;;18.00;82.30;;;;;;4939199;29;20054;-72
2023/09/17 09:29:06;;;;;;;31.20;28.08;;;18.00;82.30;;;;;;4940164;29;20039;-72
2023/09/17 09:31:32;;;;;;;28.77;25.90;;;18.10;82.50;;;;;;4948097;28;20122;-72
2023/09/17 09:34:00;;;;;;;27.42;24.70;;;18.00;82.50;;;;;;4954264;28;20130;-72
2023/09/17 09:36:28;;;;;;;32.13;29.05;;;18.10;82.60;;;;;;4947144;29;20542;-72
2023/09/17 09:38:56;;;;;;;25.17;22.77;;;18.10;82.90;;;;;;4946780;28;20615;-71
2023/09/17 09:41:22;;;;;;;30.45;27.45;;;18.10;82.90;;;;;;4942123;29;20118;-71
2023/09/17 09:43:48;;;;;;;33.10;29.60;;;18.10;83.20;;;;;;4973155;28;20146;-72
2023/09/17 09:46:14;;;;;;;28.88;25.88;;;18.20;83.50;;;;;;4972516;28;20062;-72
2023/09/17 09:48:41;;;;;;;26.98;24.25;;;18.20;83.50;;;;;;4945789;28;20525;-72
2023/09/17 09:51:07;;;;;;;32.70;29.55;;;18.30;83.70;;;;;;4976619;28;20148;-72
2023/09/17 09:53:32;;;;;;;31.13;28.15;;;18.30;83.70;;;;;;4968740;28;20046;-72
2023/09/17 09:55:58;;;;;;;27.45;24.83;;;18.40;83.90;;;;;;4958391;28;20129;-71
2023/09/17 09:58:25;;;;;;;32.75;29.52;;;18.40;83.80;;;;;;4942365;28;20043;-71
2023/09/17 10:00:51;;;;;;;30.60;27.65;;;18.50;83.90;;;;;;4943448;28;20081;-72
2023/09/17 10:03:20;;;;;;;29.77;26.83;;;18.50;83.70;;;;;;4957127;28;20063;-72
2023/09/17 10:05:46;;;;;;;32.47;29.13;;;18.50;83.60;;;;;;4955702;28;20522;-71
2023/09/17 10:08:15;;;;;;;26.52;23.88;;;18.60;83.50;;;;;;4958849;28;20070;-72
2023/09/17 10:10:42;;;;;;;30.85;27.95;;;18.60;83.30;;;;;;4975447;28;20529;-72
2023/09/17 10:13:09;;;;;;;31.55;28.48;;;18.70;83.30;;;;;;4958309;28;20089;-72
2023/09/17 10:15:36;;;;;;;34.55;31.08;;;18.70;83.20;;;;;;4941383;28;20081;-72
2023/09/17 10:18:04;;;;;;;34.15;30.92;;;18.70;83.20;;;;;;4961365;28;20046;-74
2023/09/17 10:20:30;;;;;;;30.38;27.38;;;18.80;83.10;;;;;;4957356;28;20109;-73
2023/09/17 10:22:58;;;;;;;30.13;27.25;;;18.80;82.80;;;;;;4957271;28;20031;-73
2023/09/17 10:25:24;;;;;;;29.60;26.80;;;18.80;82.60;;;;;;4972617;28;20125;-73
2023/09/17 10:27:51;;;;;;;30.20;27.10;;;18.80;82.50;;;;;;4939683;28;20386;-74
2023/09/17 10:30:18;;;;;;;27.67;24.98;;;18.90;82.40;;;;;;4956910;28;20050;-73
2023/09/17 10:32:47;;;;;;;30.60;27.60;;;18.90;82.30;;;;;;4955533;28;20243;-74
2023/09/17 10:35:14;;;;;;;31.27;28.08;;;18.90;82.30;;;;;;4957871;28;20129;-74
2023/09/17 10:37:41;;;;;;;32.28;29.17;;;18.90;82.40;;;;;;4957039;28;20042;-74
2023/09/17 10:40:10;;;;;;;34.33;30.90;;;19.00;82.60;;;;;;4957248;28;20046;-74
2023/09/17 10:42:38;;;;;;;31.92;28.73;;;19.00;83.00;;;;;;4957707;28;20054;-74
2023/09/17 10:45:07;;;;;;;29.30;26.45;;;19.00;83.10;;;;;;4956496;28;20120;-74
2023/09/17 10:47:36;;;;;;;30.50;27.55;;;19.10;83.10;;;;;;4941178;28;20041;-74
2023/09/17 10:50:06;;;;;;;33.78;30.35;;;19.10;83.00;;;;;;4950096;28;20359;-73
2023/09/17 10:52:32;;;;;;;31.75;28.55;;;19.20;83.20;;;;;;4946982;28;20050;-73
2023/09/17 10:54:59;;;;;;;30.83;27.90;;;19.20;83.10;;;;;;4954139;28;20045;-71
2023/09/17 10:57:31;;;;;;;30.73;27.80;;;19.30;83.00;;;;;;4950615;28;20046;-72
2023/09/17 10:59:59;;;;;;;29.73;26.77;;;19.30;82.80;;;;;;4947945;28;20452;-72
2023/09/17 11:02:27;;;;;;;32.70;29.45;;;19.40;83.00;;;;;;4945835;28;20154;-72
2023/09/17 11:04:53;;;;;;;29.95;27.05;;;19.50;83.30;;;;;;4948381;28;20047;-72
2023/09/17 11:07:20;;;;;;;28.95;26.08;;;19.50;82.90;;;;;;4945150;28;20137;-72
2023/09/17 11:09:46;;;;;;;30.52;27.30;;;19.60;82.50;;;;;;4948576;28;20043;-72
2023/09/17 11:12:12;;;;;;;26.40;23.92;;;19.70;82.00;;;;;;4946908;28;20074;-72
2023/09/17 11:14:38;;;;;;;27.23;24.58;;;19.70;81.50;;;;;;4946661;28;20146;-72
2023/09/17 11:17:04;;;;;;;28.13;25.38;;;19.70;81.20;;;;;;4948969;28;20090;-72
2023/09/17 11:19:30;;;;;;;27.33;24.63;;;19.70;80.90;;;;;;4946069;28;20452;-72
2023/09/17 11:22:04;;;;;;;28.08;25.10;;;19.80;80.60;;;;;;4945734;28;21426;-72
2023/09/17 11:24:32;;;;;;;26.58;24.08;;;19.80;80.50;;;;;;4962575;28;20615;-72
2023/09/17 11:27:01;;;;;;;25.25;22.90;;;19.80;80.40;;;;;;4949075;28;20039;-72
2023/09/17 11:29:41;;;;;;;25.92;23.33;;;19.90;80.00;;;;;;4948730;28;20405;-72
2023/09/17 11:32:07;;;;;;;25.98;23.30;;;19.90;80.10;;;;;;4949734;28;20069;-72
2023/09/17 11:34:35;;;;;;;26.13;23.45;;;19.90;79.90;;;;;;4948083;28;20379;-72
2023/09/17 11:37:03;;;;;;;27.30;24.63;;;20.00;79.90;;;;;;4946125;28;20051;-72
2023/09/17 11:39:29;;;;;;;26.13;23.55;;;20.00;80.20;;;;;;4940070;28;20491;-72
2023/09/17 11:42:03;;;;;;;24.48;22.25;;;20.00;79.50;;;;;;4929556;28;20039;-72
2023/09/17 11:44:35;;;;;;;24.95;22.55;;;20.00;79.30;;;;;;4938104;28;20398;-72
2023/09/17 11:47:01;;;;;;;24.67;22.27;;;20.10;79.40;;;;;;4945523;28;20051;-72
2023/09/17 11:49:28;;;;;;;25.17;22.77;;;20.10;79.50;;;;;;4962002;28;20050;-72
2023/09/17 11:51:57;;;;;;;25.08;22.67;;;20.10;79.50;;;;;;4944127;28;20090;-72
2023/09/17 11:54:28;;;;;;;25.70;23.20;;;20.30;79.00;;;;;;4945002;28;20159;-72
2023/09/17 11:56:55;;;;;;;25.75;23.35;;;20.30;78.30;;;;;;4929022;28;20046;-72
2023/09/17 11:59:22;;;;;;;23.23;21.02;;;20.30;78.20;;;;;;4945663;28;20374;-72
2023/09/17 12:01:53;;;;;;;25.65;23.25;;;20.30;78.30;;;;;;4946062;28;20070;-72
2023/09/17 12:04:22;;;;;;;23.67;21.45;;;20.30;78.20;;;;;;4943924;28;20521;-72
2023/09/17 12:06:50;;;;;;;25.17;22.75;;;20.40;78.20;;;;;;4945835;28;20047;-72
2023/09/17 12:09:48;;;;;;;25.80;23.48;;;20.40;78.00;;;;;;4945105;28;20573;-72
2023/09/17 12:12:18;;;;;;;27.15;24.45;;;20.40;77.90;;;;;;4937499;28;20698;-72
2023/09/17 12:14:46;;;;;;;25.38;22.85;;;20.50;77.90;;;;;;4950272;28;20121;-72
2023/09/17 12:17:13;;;;;;;23.92;21.60;;;20.40;77.80;;;;;;4944731;28;20047;-72
2023/09/17 12:19:40;;;;;;;26.40;23.83;;;20.50;77.90;;;;;;4944342;28;20122;-72
2023/09/17 12:22:09;;;;;;;25.75;23.25;;;20.50;77.70;;;;;;4943594;28;20082;-72
2023/09/17 12:24:37;;;;;;;23.38;21.02;;;20.50;77.70;;;;;;4945409;28;20041;-72
2023/09/17 12:29:57;;;;;;;;;;;20.60;77.60;;;;;;4952758;28;20055;-73
2023/09/17 12:32:30;;;;;;;22.10;20.02;;;20.60;77.60;;;;;;4953074;28;19926;-73